createdAt,value
2018-03-31T00:00:05.025Z,7.10
2018-03-31T00:01:05.555Z,7.10
2018-03-31T00:02:05.620Z,7.10
2018-03-31T00:03:05.473Z,7.00
2018-03-31T00:04:05.139Z,7.00
2018-03-31T00:05:05.523Z,7.00
2018-03-31T00:06:05.219Z,7.00
2018-03-31T00:07:04.831Z,7.00
2018-03-31T00:08:04.799Z,7.00
2018-03-31T00:09:04.694Z,7.00
2018-03-31T00:10:04.856Z,7.00
2018-03-31T00:11:05.553Z,7.00
2018-03-31T00:12:05.262Z,7.00
2018-03-31T00:13:05.753Z,7.00
2018-03-31T00:14:05.244Z,7.00
2018-03-31T00:15:04.874Z,7.00
2018-03-31T00:16:04.808Z,7.00
2018-03-31T00:17:05.219Z,7.00
2018-03-31T00:18:05.060Z,7.00
2018-03-31T00:19:04.985Z,7.00
2018-03-31T00:20:04.732Z,7.00
2018-03-31T00:21:05.507Z,7.00
2018-03-31T00:22:05.244Z,7.00
2018-03-31T00:23:05.199Z,7.00
2018-03-31T00:24:05.248Z,6.90
2018-03-31T00:25:04.881Z,7.00
2018-03-31T00:26:04.799Z,7.00
2018-03-31T00:27:05.749Z,6.90
2018-03-31T00:28:05.507Z,6.90
2018-03-31T00:29:05.188Z,7.00
2018-03-31T00:30:04.962Z,7.00
2018-03-31T00:31:04.751Z,7.00
2018-03-31T00:32:04.658Z,7.00
2018-03-31T00:33:04.990Z,7.00
2018-03-31T00:34:05.043Z,7.00
2018-03-31T00:35:04.983Z,7.00
2018-03-31T00:36:05.387Z,7.00
2018-03-31T00:37:04.989Z,7.00
2018-03-31T00:38:06.588Z,7.00
2018-03-31T00:39:05.510Z,7.00
2018-03-31T00:40:04.940Z,7.00
2018-03-31T00:41:05.150Z,7.00
2018-03-31T00:42:05.498Z,7.00
2018-03-31T00:43:05.044Z,7.00
2018-03-31T00:44:04.695Z,7.00
2018-03-31T00:45:05.399Z,7.00
2018-03-31T00:46:05.042Z,7.00
2018-03-31T00:47:04.853Z,7.00
2018-03-31T00:48:04.782Z,7.00
2018-03-31T00:49:04.772Z,7.00
2018-03-31T00:50:05.063Z,6.90
2018-03-31T00:51:04.643Z,7.00
2018-03-31T00:52:05.545Z,7.00
2018-03-31T00:53:05.177Z,6.90
2018-03-31T00:54:05.154Z,7.00
2018-03-31T00:55:05.581Z,6.90
2018-03-31T00:56:05.455Z,6.90
2018-03-31T00:57:05.051Z,6.90
2018-03-31T00:58:04.777Z,6.90
2018-03-31T00:59:05.685Z,6.90
2018-03-31T01:00:06.615Z,6.90
2018-03-31T01:01:04.969Z,6.90
2018-03-31T01:02:05.637Z,6.90
2018-03-31T01:03:05.347Z,6.90
2018-03-31T01:04:04.970Z,6.90
2018-03-31T01:05:04.637Z,6.90
2018-03-31T01:06:04.678Z,6.90
2018-03-31T01:07:04.927Z,6.90
2018-03-31T01:08:04.740Z,6.90
2018-03-31T01:09:05.654Z,6.90
2018-03-31T01:10:05.646Z,6.90
2018-03-31T01:11:04.624Z,6.90
2018-03-31T01:12:05.534Z,6.90
2018-03-31T01:13:05.454Z,6.90
2018-03-31T01:14:04.947Z,6.90
2018-03-31T01:15:05.650Z,6.90
2018-03-31T01:16:05.519Z,6.90
2018-03-31T01:17:05.137Z,6.90
2018-03-31T01:18:04.899Z,6.90
2018-03-31T01:19:04.902Z,6.90
2018-03-31T01:20:05.309Z,6.90
2018-03-31T01:21:04.977Z,6.90
2018-03-31T01:22:04.957Z,6.90
2018-03-31T01:23:05.036Z,6.90
2018-03-31T01:24:05.405Z,6.80
2018-03-31T01:25:05.491Z,6.80
2018-03-31T01:26:05.574Z,6.80
2018-03-31T01:27:05.191Z,6.80
2018-03-31T01:28:04.673Z,6.80
2018-03-31T01:29:05.255Z,6.80
2018-03-31T01:30:05.228Z,6.80
2018-03-31T01:31:04.831Z,6.80
2018-03-31T01:32:05.322Z,6.80
2018-03-31T01:33:05.681Z,6.80
2018-03-31T01:34:04.724Z,6.80
2018-03-31T01:35:04.724Z,6.80
2018-03-31T01:36:05.183Z,6.80
2018-03-31T01:37:05.293Z,6.80
2018-03-31T01:38:04.984Z,6.80
2018-03-31T01:39:04.883Z,6.80
2018-03-31T01:40:05.549Z,6.80
2018-03-31T01:41:05.022Z,6.80
2018-03-31T01:42:04.931Z,6.80
2018-03-31T01:43:05.654Z,6.80
2018-03-31T01:44:05.180Z,6.80
2018-03-31T01:45:05.925Z,6.80
2018-03-31T01:46:04.950Z,6.80
2018-03-31T01:47:04.829Z,6.80
2018-03-31T01:48:05.520Z,6.80
2018-03-31T01:49:05.543Z,6.70
2018-03-31T01:50:05.350Z,6.80
2018-03-31T01:51:04.768Z,6.70
2018-03-31T01:52:04.700Z,6.80
2018-03-31T01:53:04.660Z,6.70
2018-03-31T01:54:05.635Z,6.70
2018-03-31T01:55:05.279Z,6.70
2018-03-31T01:56:05.127Z,6.70
2018-03-31T01:57:04.771Z,6.70
2018-03-31T01:58:04.844Z,6.70
2018-03-31T01:59:04.889Z,6.70
2018-03-31T02:00:04.881Z,6.70
2018-03-31T02:01:04.866Z,6.70
2018-03-31T02:02:04.757Z,6.70
2018-03-31T02:03:04.633Z,6.70
2018-03-31T02:04:04.883Z,6.60
2018-03-31T02:05:05.383Z,6.60
2018-03-31T02:06:05.446Z,6.60
2018-03-31T02:07:05.095Z,6.60
2018-03-31T02:08:05.515Z,6.60
2018-03-31T02:09:05.049Z,6.60
2018-03-31T02:10:04.708Z,6.60
2018-03-31T02:11:04.911Z,6.60
2018-03-31T02:12:05.666Z,6.60
2018-03-31T02:13:05.527Z,6.60
2018-03-31T02:14:05.070Z,6.50
2018-03-31T02:15:04.896Z,6.50
2018-03-31T02:16:04.883Z,6.50
2018-03-31T02:17:04.853Z,6.50
2018-03-31T02:18:05.687Z,6.50
2018-03-31T02:19:05.537Z,6.50
2018-03-31T02:20:05.008Z,6.50
2018-03-31T02:21:05.025Z,6.50
2018-03-31T02:22:04.761Z,6.50
2018-03-31T02:23:04.659Z,6.50
2018-03-31T02:24:05.555Z,6.50
2018-03-31T02:25:05.291Z,6.50
2018-03-31T02:26:05.022Z,6.50
2018-03-31T02:27:05.037Z,6.50
2018-03-31T02:28:06.526Z,6.40
2018-03-31T02:29:05.508Z,6.40
2018-03-31T02:30:04.859Z,6.40
2018-03-31T02:31:05.529Z,6.40
2018-03-31T02:32:05.397Z,6.40
2018-03-31T02:33:04.916Z,6.40
2018-03-31T02:34:04.679Z,6.40
2018-03-31T02:35:05.647Z,6.40
2018-03-31T02:36:05.487Z,6.40
2018-03-31T02:37:04.743Z,6.40
2018-03-31T02:38:04.775Z,6.40
2018-03-31T02:39:05.064Z,6.40
2018-03-31T02:40:05.565Z,6.40
2018-03-31T02:41:05.192Z,6.40
2018-03-31T02:42:04.703Z,6.40
2018-03-31T02:43:05.583Z,6.40
2018-03-31T02:44:05.303Z,6.40
2018-03-31T02:45:05.296Z,6.40
2018-03-31T02:46:04.643Z,6.40
2018-03-31T02:47:05.632Z,6.40
2018-03-31T02:48:05.520Z,6.40
2018-03-31T02:49:05.089Z,6.40
2018-03-31T02:50:05.229Z,6.40
2018-03-31T02:51:04.821Z,6.30
2018-03-31T02:52:05.427Z,6.40
2018-03-31T02:53:04.959Z,6.30
2018-03-31T02:54:04.808Z,6.30
2018-03-31T02:55:04.864Z,6.30
2018-03-31T02:56:04.959Z,6.30
2018-03-31T02:57:05.425Z,6.30
2018-03-31T02:58:05.214Z,6.30
2018-03-31T02:59:04.977Z,6.30
2018-03-31T03:00:05.625Z,6.30
2018-03-31T03:01:05.507Z,6.30
2018-03-31T03:02:05.271Z,6.30
2018-03-31T03:03:04.869Z,6.30
2018-03-31T03:04:05.074Z,6.30
2018-03-31T03:05:04.810Z,6.30
2018-03-31T03:06:04.842Z,6.30
2018-03-31T03:07:08.043Z,6.30
2018-03-31T03:08:04.972Z,6.30
2018-03-31T03:09:05.060Z,6.30
2018-03-31T03:10:04.854Z,6.30
2018-03-31T03:11:04.905Z,6.30
2018-03-31T03:12:04.763Z,6.30
2018-03-31T03:13:05.196Z,6.30
2018-03-31T03:14:05.003Z,6.20
2018-03-31T03:15:04.742Z,6.20
2018-03-31T03:16:04.791Z,6.20
2018-03-31T03:17:04.887Z,6.20
2018-03-31T03:18:05.051Z,6.20
2018-03-31T03:19:04.858Z,6.20
2018-03-31T03:20:05.475Z,6.20
2018-03-31T03:21:05.403Z,6.20
2018-03-31T03:22:05.274Z,6.20
2018-03-31T03:23:05.146Z,6.30
2018-03-31T03:24:05.078Z,6.30
2018-03-31T03:25:05.120Z,6.30
2018-03-31T03:26:04.738Z,6.30
2018-03-31T03:27:04.660Z,6.30
2018-03-31T03:28:04.724Z,6.30
2018-03-31T03:29:05.273Z,6.30
2018-03-31T03:30:05.447Z,6.30
2018-03-31T03:31:09.826Z,6.30
2018-03-31T03:32:04.811Z,6.30
2018-03-31T03:33:06.976Z,6.30
2018-03-31T03:34:05.079Z,6.30
2018-03-31T03:35:04.995Z,6.30
2018-03-31T03:36:05.409Z,6.30
2018-03-31T03:37:05.353Z,6.40
2018-03-31T03:38:05.288Z,6.40
2018-03-31T03:39:04.997Z,6.40
2018-03-31T03:40:05.113Z,6.40
2018-03-31T03:41:05.136Z,6.40
2018-03-31T03:42:04.693Z,6.40
2018-03-31T03:43:04.769Z,6.40
2018-03-31T03:44:04.887Z,6.40
2018-03-31T03:45:04.817Z,6.40
2018-03-31T03:46:05.499Z,6.40
2018-03-31T03:47:05.190Z,6.40
2018-03-31T03:48:05.736Z,6.40
2018-03-31T03:49:05.660Z,6.40
2018-03-31T03:50:05.566Z,6.40
2018-03-31T03:51:05.626Z,6.40
2018-03-31T03:52:05.477Z,6.40
2018-03-31T03:53:05.013Z,6.40
2018-03-31T03:54:04.688Z,6.40
2018-03-31T03:55:05.335Z,6.40
2018-03-31T03:56:04.803Z,6.40
2018-03-31T03:57:05.390Z,6.40
2018-03-31T03:58:04.889Z,6.40
2018-03-31T03:59:04.793Z,6.40
2018-03-31T04:00:05.299Z,6.40
2018-03-31T04:01:05.649Z,6.50
2018-03-31T04:02:05.116Z,6.40
2018-03-31T04:03:04.983Z,6.50
2018-03-31T04:04:04.834Z,6.50
2018-03-31T04:05:04.740Z,6.40
2018-03-31T04:06:05.406Z,6.50
2018-03-31T04:07:05.409Z,6.40
2018-03-31T04:08:05.207Z,6.40
2018-03-31T04:09:05.016Z,6.40
2018-03-31T04:10:04.848Z,6.40
2018-03-31T04:11:05.509Z,6.40
2018-03-31T04:12:05.461Z,6.40
2018-03-31T04:13:04.970Z,6.40
2018-03-31T04:14:05.060Z,6.40
2018-03-31T04:15:04.770Z,6.40
2018-03-31T04:16:05.327Z,6.40
2018-03-31T04:17:04.997Z,6.40
2018-03-31T04:18:05.179Z,6.40
2018-03-31T04:19:04.672Z,6.40
2018-03-31T04:20:05.066Z,6.40
2018-03-31T04:21:05.681Z,6.40
2018-03-31T04:22:04.924Z,6.40
2018-03-31T04:23:04.779Z,6.40
2018-03-31T04:24:04.643Z,6.40
2018-03-31T04:25:05.004Z,6.40
2018-03-31T04:26:04.904Z,6.30
2018-03-31T04:27:04.703Z,6.30
2018-03-31T04:28:04.884Z,6.30
2018-03-31T04:29:04.772Z,6.30
2018-03-31T04:30:04.954Z,6.30
2018-03-31T04:31:04.803Z,6.30
2018-03-31T04:32:04.680Z,6.30
2018-03-31T04:33:05.014Z,6.30
2018-03-31T04:34:05.598Z,6.30
2018-03-31T04:35:05.082Z,6.30
2018-03-31T04:36:05.078Z,6.30
2018-03-31T04:37:04.946Z,6.30
2018-03-31T04:38:05.036Z,6.30
2018-03-31T04:39:04.861Z,6.30
2018-03-31T04:40:05.116Z,6.30
2018-03-31T04:41:04.736Z,6.30
2018-03-31T04:42:04.773Z,6.30
2018-03-31T04:43:04.674Z,6.30
2018-03-31T04:44:04.663Z,6.30
2018-03-31T04:45:05.436Z,6.30
2018-03-31T04:46:04.994Z,6.20
2018-03-31T04:47:04.955Z,6.30
2018-03-31T04:48:04.903Z,6.30
2018-03-31T04:49:04.819Z,6.30
2018-03-31T04:50:04.765Z,6.30
2018-03-31T04:51:04.904Z,6.30
2018-03-31T04:52:05.411Z,6.20
2018-03-31T04:53:05.046Z,6.20
2018-03-31T04:54:04.912Z,6.20
2018-03-31T04:55:04.974Z,6.30
2018-03-31T04:56:05.474Z,6.30
2018-03-31T04:57:05.508Z,6.30
2018-03-31T04:58:05.646Z,6.30
2018-03-31T04:59:05.491Z,6.30
2018-03-31T05:00:05.172Z,6.20
2018-03-31T05:01:05.611Z,6.30
2018-03-31T05:02:05.007Z,6.20
2018-03-31T05:03:04.840Z,6.20
2018-03-31T05:04:04.987Z,6.20
2018-03-31T05:05:05.511Z,6.20
2018-03-31T05:06:05.166Z,6.20
2018-03-31T05:07:06.093Z,6.30
2018-03-31T05:08:05.812Z,6.20
2018-03-31T05:09:04.810Z,6.20
2018-03-31T05:10:04.941Z,6.20
2018-03-31T05:11:05.058Z,6.20
2018-03-31T05:12:04.955Z,6.20
2018-03-31T05:13:05.238Z,6.20
2018-03-31T05:14:04.735Z,6.20
2018-03-31T05:15:05.056Z,6.20
2018-03-31T05:16:05.070Z,6.20
2018-03-31T05:17:05.682Z,6.20
2018-03-31T05:18:05.282Z,6.20
2018-03-31T05:19:04.611Z,6.20
2018-03-31T05:20:05.502Z,6.20
2018-03-31T05:21:05.654Z,6.20
2018-03-31T05:22:05.114Z,6.20
2018-03-31T05:23:06.382Z,6.30
2018-03-31T05:24:05.666Z,6.30
2018-03-31T05:25:05.480Z,6.20
2018-03-31T05:26:04.742Z,6.20
2018-03-31T05:27:05.509Z,6.20
2018-03-31T05:28:05.495Z,6.20
2018-03-31T05:29:04.978Z,6.30
2018-03-31T05:30:05.011Z,6.30
2018-03-31T05:31:05.028Z,6.30
2018-03-31T05:32:05.010Z,6.20
2018-03-31T05:33:04.886Z,6.30
2018-03-31T05:34:05.725Z,6.30
2018-03-31T05:35:05.806Z,6.30
2018-03-31T05:36:04.961Z,6.30
2018-03-31T05:37:05.519Z,6.30
2018-03-31T05:38:05.350Z,6.30
2018-03-31T05:39:05.618Z,6.30
2018-03-31T05:40:05.137Z,6.30
2018-03-31T05:41:04.911Z,6.30
2018-03-31T05:42:05.017Z,6.30
2018-03-31T05:43:05.129Z,6.30
2018-03-31T05:44:05.041Z,6.30
2018-03-31T05:45:04.753Z,6.30
2018-03-31T05:46:05.796Z,6.30
2018-03-31T05:47:05.602Z,6.30
2018-03-31T05:48:05.046Z,6.30
2018-03-31T05:49:05.246Z,6.30
2018-03-31T05:50:05.278Z,6.30
2018-03-31T05:51:05.302Z,6.30
2018-03-31T05:52:05.041Z,6.30
2018-03-31T05:53:05.600Z,6.30
2018-03-31T05:54:05.360Z,6.30
2018-03-31T05:55:04.692Z,6.30
2018-03-31T05:56:05.140Z,6.30
2018-03-31T05:57:04.696Z,6.30
2018-03-31T05:58:05.409Z,6.30
2018-03-31T05:59:04.956Z,6.30
2018-03-31T06:00:05.127Z,6.30
2018-03-31T06:01:04.837Z,6.30
2018-03-31T06:02:05.230Z,6.30
2018-03-31T06:03:05.199Z,6.30
2018-03-31T06:04:04.945Z,6.30
2018-03-31T06:05:04.820Z,6.30
2018-03-31T06:06:05.522Z,6.30
2018-03-31T06:07:05.044Z,6.30
2018-03-31T06:08:05.780Z,6.30
2018-03-31T06:09:05.423Z,6.30
2018-03-31T06:10:05.174Z,6.30
2018-03-31T06:11:05.905Z,6.30
2018-03-31T06:12:04.969Z,6.40
2018-03-31T06:13:05.423Z,6.30
2018-03-31T06:14:05.332Z,6.30
2018-03-31T06:15:05.009Z,6.30
2018-03-31T06:16:04.982Z,6.30
2018-03-31T06:17:04.715Z,6.40
2018-03-31T06:18:05.239Z,6.30
2018-03-31T06:19:04.789Z,6.30
2018-03-31T06:20:05.365Z,6.30
2018-03-31T06:21:05.251Z,6.30
2018-03-31T06:22:05.165Z,6.30
2018-03-31T06:23:05.212Z,6.30
2018-03-31T06:24:05.245Z,6.30
2018-03-31T06:25:05.332Z,6.30
2018-03-31T06:26:05.187Z,6.30
2018-03-31T06:27:05.244Z,6.40
2018-03-31T06:28:05.806Z,6.40
2018-03-31T06:29:04.945Z,6.40
2018-03-31T06:30:04.997Z,6.40
2018-03-31T06:31:05.090Z,6.40
2018-03-31T06:32:05.037Z,6.40
2018-03-31T06:33:05.136Z,6.40
2018-03-31T06:34:04.970Z,6.40
2018-03-31T06:35:04.997Z,6.40
2018-03-31T06:36:04.887Z,6.40
2018-03-31T06:37:04.921Z,6.40
2018-03-31T06:38:04.984Z,6.40
2018-03-31T06:39:05.559Z,6.40
2018-03-31T06:40:05.319Z,6.40
2018-03-31T06:41:05.141Z,6.40
2018-03-31T06:42:05.026Z,6.40
2018-03-31T06:43:05.633Z,6.40
2018-03-31T06:44:04.699Z,6.40
2018-03-31T06:45:05.568Z,6.40
2018-03-31T06:46:05.257Z,6.40
2018-03-31T06:47:05.295Z,6.40
2018-03-31T06:48:05.136Z,6.40
2018-03-31T06:49:04.680Z,6.40
2018-03-31T06:50:05.616Z,6.40
2018-03-31T06:51:06.524Z,6.40
2018-03-31T06:52:04.978Z,6.40
2018-03-31T06:53:04.942Z,6.40
2018-03-31T06:54:04.851Z,6.40
2018-03-31T06:55:04.990Z,6.40
2018-03-31T06:56:04.915Z,6.40
2018-03-31T06:57:05.436Z,6.40
2018-03-31T06:58:05.110Z,6.40
2018-03-31T06:59:05.412Z,6.40
2018-03-31T07:00:05.088Z,6.40
2018-03-31T07:01:05.011Z,6.40
2018-03-31T07:02:05.160Z,6.40
2018-03-31T07:03:04.698Z,6.40
2018-03-31T07:04:04.862Z,6.40
2018-03-31T07:05:05.273Z,6.40
2018-03-31T07:06:04.669Z,6.40
2018-03-31T07:07:04.761Z,6.40
2018-03-31T07:08:05.590Z,6.40
2018-03-31T07:09:05.303Z,6.40
2018-03-31T07:10:05.305Z,6.40
2018-03-31T07:11:05.008Z,6.40
2018-03-31T07:12:04.827Z,6.40
2018-03-31T07:13:04.871Z,6.40
2018-03-31T07:14:05.541Z,6.40
2018-03-31T07:15:05.447Z,6.40
2018-03-31T07:16:05.214Z,6.40
2018-03-31T07:17:05.256Z,6.40
2018-03-31T07:18:05.482Z,6.40
2018-03-31T07:19:05.108Z,6.40
2018-03-31T07:20:04.944Z,6.40
2018-03-31T07:21:04.787Z,6.40
2018-03-31T07:22:04.831Z,6.40
2018-03-31T07:23:05.048Z,6.40
2018-03-31T07:24:05.061Z,6.50
2018-03-31T07:25:05.063Z,6.50
2018-03-31T07:26:05.275Z,6.50
2018-03-31T07:27:04.877Z,6.50
2018-03-31T07:28:05.295Z,6.50
2018-03-31T07:29:05.042Z,6.50
2018-03-31T07:30:06.136Z,6.50
2018-03-31T07:31:06.725Z,6.50
2018-03-31T07:32:05.665Z,6.50
2018-03-31T07:33:05.060Z,6.50
2018-03-31T07:34:04.947Z,6.60
2018-03-31T07:35:05.030Z,6.60
2018-03-31T07:36:04.629Z,6.60
2018-03-31T07:37:05.664Z,6.50
2018-03-31T07:38:05.135Z,6.60
2018-03-31T07:39:04.864Z,6.60
2018-03-31T07:40:05.515Z,6.60
2018-03-31T07:41:05.309Z,6.60
2018-03-31T07:42:05.205Z,6.60
2018-03-31T07:43:05.277Z,6.60
2018-03-31T07:44:05.633Z,6.60
2018-03-31T07:45:05.228Z,6.60
2018-03-31T07:46:05.388Z,6.60
2018-03-31T07:47:05.100Z,6.60
2018-03-31T07:48:04.954Z,6.60
2018-03-31T07:49:05.661Z,6.60
2018-03-31T07:50:05.203Z,6.60
2018-03-31T07:51:05.427Z,6.60
2018-03-31T07:52:05.413Z,6.60
2018-03-31T07:53:05.451Z,6.60
2018-03-31T07:54:05.460Z,6.70
2018-03-31T07:55:05.068Z,6.70
2018-03-31T07:56:05.008Z,6.70
2018-03-31T07:57:05.150Z,6.70
2018-03-31T07:58:06.876Z,6.70
2018-03-31T07:59:04.816Z,6.70
2018-03-31T08:00:04.774Z,6.70
2018-03-31T08:01:04.695Z,6.70
2018-03-31T08:02:04.755Z,6.70
2018-03-31T08:03:05.288Z,6.70
2018-03-31T08:04:04.962Z,6.70
2018-03-31T08:05:05.269Z,6.70
2018-03-31T08:06:05.016Z,6.70
2018-03-31T08:07:05.551Z,6.70
2018-03-31T08:08:05.493Z,6.70
2018-03-31T08:09:05.469Z,6.70
2018-03-31T08:10:05.107Z,6.70
2018-03-31T08:11:05.073Z,6.70
2018-03-31T08:12:04.767Z,6.70
2018-03-31T08:13:05.528Z,6.70
2018-03-31T08:14:05.142Z,6.70
2018-03-31T08:15:04.910Z,6.70
2018-03-31T08:16:05.325Z,6.70
2018-03-31T08:17:05.594Z,6.70
2018-03-31T08:18:05.591Z,6.70
2018-03-31T08:19:05.222Z,6.70
2018-03-31T08:20:04.727Z,6.70
2018-03-31T08:21:05.566Z,6.70
2018-03-31T08:22:05.312Z,6.70
2018-03-31T08:23:05.288Z,6.70
2018-03-31T08:24:05.319Z,6.70
2018-03-31T08:25:05.375Z,6.70
2018-03-31T08:26:10.356Z,6.70
2018-03-31T08:27:05.213Z,6.70
2018-03-31T08:28:05.073Z,6.80
2018-03-31T08:29:05.671Z,6.80
2018-03-31T08:30:05.340Z,6.80
2018-03-31T08:31:04.923Z,6.80
2018-03-31T08:32:05.626Z,6.80
2018-03-31T08:33:05.390Z,6.80
2018-03-31T08:34:04.808Z,6.80
2018-03-31T08:35:04.776Z,6.80
2018-03-31T08:36:05.127Z,6.80
2018-03-31T08:37:05.052Z,6.80
2018-03-31T08:38:04.977Z,6.80
2018-03-31T08:39:05.180Z,6.80
2018-03-31T08:40:04.953Z,6.70
2018-03-31T08:41:05.304Z,6.80
2018-03-31T08:42:05.507Z,6.80
2018-03-31T08:43:04.636Z,6.70
2018-03-31T08:44:05.058Z,6.70
2018-03-31T08:45:04.895Z,6.70
2018-03-31T08:46:04.989Z,6.70
2018-03-31T08:47:04.959Z,6.70
2018-03-31T08:48:05.096Z,6.80
2018-03-31T08:49:05.019Z,6.80
2018-03-31T08:50:04.998Z,6.80
2018-03-31T08:51:04.992Z,6.80
2018-03-31T08:52:05.253Z,6.80
2018-03-31T08:53:05.141Z,6.80
2018-03-31T08:54:04.917Z,6.80
2018-03-31T08:55:04.876Z,6.80
2018-03-31T08:56:04.847Z,6.80
2018-03-31T08:57:05.021Z,6.80
2018-03-31T08:58:05.632Z,6.80
2018-03-31T08:59:05.091Z,6.90
2018-03-31T09:00:04.845Z,6.90
2018-03-31T09:01:04.891Z,6.90
2018-03-31T09:02:05.172Z,6.90
2018-03-31T09:03:05.116Z,6.90
2018-03-31T09:04:05.392Z,6.90
2018-03-31T09:05:04.875Z,6.90
2018-03-31T09:06:05.476Z,6.90
2018-03-31T09:07:05.328Z,6.90
2018-03-31T09:08:05.206Z,6.90
2018-03-31T09:09:05.637Z,6.90
2018-03-31T09:10:05.215Z,6.90
2018-03-31T09:11:05.042Z,6.90
2018-03-31T09:12:04.684Z,6.90
2018-03-31T09:13:05.227Z,6.90
2018-03-31T09:14:05.256Z,6.90
2018-03-31T09:15:05.202Z,6.90
2018-03-31T09:16:05.482Z,6.90
2018-03-31T09:17:05.337Z,6.90
2018-03-31T09:18:05.403Z,6.90
2018-03-31T09:19:05.302Z,6.90
2018-03-31T09:20:05.178Z,7.00
2018-03-31T09:21:04.837Z,7.00
2018-03-31T09:22:05.011Z,7.10
2018-03-31T09:23:05.006Z,7.10
2018-03-31T09:24:05.404Z,7.20
2018-03-31T09:25:05.503Z,7.20
2018-03-31T09:26:05.342Z,7.20
2018-03-31T09:27:05.082Z,7.30
2018-03-31T09:28:04.885Z,7.40
2018-03-31T09:29:05.333Z,7.40
2018-03-31T09:30:05.175Z,7.50
2018-03-31T09:31:05.059Z,7.50
2018-03-31T09:32:04.783Z,7.60
2018-03-31T09:33:04.779Z,7.70
2018-03-31T09:34:05.126Z,7.70
2018-03-31T09:35:05.500Z,7.80
2018-03-31T09:36:05.563Z,7.80
2018-03-31T09:37:04.633Z,7.80
2018-03-31T09:38:04.914Z,7.80
2018-03-31T09:39:04.945Z,7.90
2018-03-31T09:40:04.789Z,7.90
2018-03-31T09:41:05.013Z,7.90
2018-03-31T09:42:05.195Z,7.90
2018-03-31T09:43:04.761Z,7.90
2018-03-31T09:44:05.163Z,8.00
2018-03-31T09:45:04.912Z,8.00
2018-03-31T09:46:04.819Z,8.00
2018-03-31T09:47:05.606Z,8.00
2018-03-31T09:48:05.082Z,8.00
2018-03-31T09:49:05.074Z,8.00
2018-03-31T09:50:05.239Z,8.00
2018-03-31T09:51:04.956Z,8.10
2018-03-31T09:52:05.327Z,8.10
2018-03-31T09:53:04.874Z,8.10
2018-03-31T09:54:05.578Z,8.10
2018-03-31T09:55:05.342Z,8.10
2018-03-31T09:56:05.390Z,8.20
2018-03-31T09:57:04.919Z,8.20
2018-03-31T09:58:05.718Z,8.20
2018-03-31T09:59:05.367Z,8.20
2018-03-31T10:00:05.538Z,8.10
2018-03-31T10:01:04.992Z,8.10
2018-03-31T10:02:05.475Z,8.10
2018-03-31T10:03:05.131Z,8.10
2018-03-31T10:04:04.743Z,8.00
2018-03-31T10:05:04.861Z,8.00
2018-03-31T10:06:04.822Z,8.00
2018-03-31T10:07:04.779Z,8.00
2018-03-31T10:08:05.503Z,8.00
2018-03-31T10:09:05.294Z,8.00
2018-03-31T10:10:04.888Z,7.90
2018-03-31T10:11:04.830Z,7.90
2018-03-31T10:12:04.850Z,7.90
2018-03-31T10:13:04.745Z,7.90
2018-03-31T10:14:05.713Z,7.90
2018-03-31T10:15:05.144Z,7.80
2018-03-31T10:16:05.408Z,7.80
2018-03-31T10:17:05.144Z,7.80
2018-03-31T10:18:04.690Z,7.80
2018-03-31T10:19:04.717Z,7.80
2018-03-31T10:20:04.822Z,7.80
2018-03-31T10:21:04.983Z,7.80
2018-03-31T10:22:04.904Z,7.80
2018-03-31T10:23:04.935Z,7.80
2018-03-31T10:24:05.564Z,7.80
2018-03-31T10:25:05.321Z,7.80
2018-03-31T10:26:04.913Z,7.80
2018-03-31T10:27:05.030Z,7.80
2018-03-31T10:28:05.142Z,7.80
2018-03-31T10:29:05.343Z,7.80
2018-03-31T10:30:04.819Z,7.90
2018-03-31T10:31:05.419Z,7.90
2018-03-31T10:32:05.444Z,8.00
2018-03-31T10:33:04.989Z,8.00
2018-03-31T10:34:05.290Z,8.10
2018-03-31T10:35:04.746Z,8.10
2018-03-31T10:36:04.748Z,8.20
2018-03-31T10:37:05.295Z,8.20
2018-03-31T10:38:06.313Z,8.30
2018-03-31T10:39:05.382Z,8.30
2018-03-31T10:40:05.342Z,8.40
2018-03-31T10:41:05.206Z,8.40
2018-03-31T10:42:04.799Z,8.40
2018-03-31T10:43:04.868Z,8.50
2018-03-31T10:44:04.792Z,8.50
2018-03-31T10:45:05.454Z,8.50
2018-03-31T10:46:05.196Z,8.50
2018-03-31T10:47:05.228Z,8.50
2018-03-31T10:48:05.251Z,8.50
2018-03-31T10:49:05.474Z,8.50
2018-03-31T10:50:05.218Z,8.50
2018-03-31T10:51:05.321Z,8.50
2018-03-31T10:52:05.047Z,8.50
2018-03-31T10:53:05.264Z,8.50
2018-03-31T10:54:05.210Z,8.40
2018-03-31T10:55:05.085Z,8.40
2018-03-31T10:56:05.104Z,8.40
2018-03-31T10:57:04.934Z,8.40
2018-03-31T10:58:05.135Z,8.40
2018-03-31T10:59:04.890Z,8.40
2018-03-31T11:00:05.281Z,8.40
2018-03-31T11:01:05.182Z,8.40
2018-03-31T11:02:04.938Z,8.40
2018-03-31T11:03:05.387Z,8.40
2018-03-31T11:04:05.240Z,8.40
2018-03-31T11:05:04.956Z,8.30
2018-03-31T11:06:05.457Z,8.30
2018-03-31T11:07:05.517Z,8.30
2018-03-31T11:08:04.909Z,8.30
2018-03-31T11:09:05.412Z,8.30
2018-03-31T11:10:05.168Z,8.40
2018-03-31T11:11:04.664Z,8.40
2018-03-31T11:12:04.801Z,8.30
2018-03-31T11:13:04.931Z,8.30
2018-03-31T11:14:04.748Z,8.30
2018-03-31T11:15:05.171Z,8.30
2018-03-31T11:16:04.774Z,8.30
2018-03-31T11:17:05.356Z,8.30
2018-03-31T11:18:05.213Z,8.30
2018-03-31T11:19:05.531Z,8.30
2018-03-31T11:20:05.511Z,8.40
2018-03-31T11:21:05.025Z,8.40
2018-03-31T11:22:04.809Z,8.40
2018-03-31T11:23:05.281Z,8.40
2018-03-31T11:24:05.630Z,8.40
2018-03-31T11:25:05.343Z,8.40
2018-03-31T11:26:04.854Z,8.40
2018-03-31T11:27:04.971Z,8.50
2018-03-31T11:28:05.626Z,8.50
2018-03-31T11:29:05.265Z,8.50
2018-03-31T11:30:05.221Z,8.50
2018-03-31T11:31:05.164Z,8.50
2018-03-31T11:32:05.049Z,8.50
2018-03-31T11:33:05.165Z,8.50
2018-03-31T11:34:05.603Z,8.50
2018-03-31T11:35:05.479Z,8.60
2018-03-31T11:36:05.184Z,8.60
2018-03-31T11:37:05.285Z,8.50
2018-03-31T11:38:04.830Z,8.50
2018-03-31T11:39:04.911Z,8.50
2018-03-31T11:40:05.406Z,8.50
2018-03-31T11:41:05.050Z,8.50
2018-03-31T11:42:05.332Z,8.50
2018-03-31T11:43:05.121Z,8.40
2018-03-31T11:44:05.237Z,8.40
2018-03-31T11:45:05.124Z,8.40
2018-03-31T11:46:05.129Z,8.40
2018-03-31T11:47:04.718Z,8.40
2018-03-31T11:48:06.381Z,8.40
2018-03-31T11:49:05.114Z,8.40
2018-03-31T11:50:05.591Z,8.30
2018-03-31T11:51:05.664Z,8.30
2018-03-31T11:52:05.721Z,8.30
2018-03-31T11:53:05.237Z,8.30
2018-03-31T11:54:04.716Z,8.30
2018-03-31T11:55:05.452Z,8.20
2018-03-31T11:56:05.382Z,8.20
2018-03-31T11:57:05.034Z,8.20
2018-03-31T11:58:05.626Z,8.20
2018-03-31T11:59:05.247Z,8.20
2018-03-31T12:00:05.174Z,8.10
2018-03-31T12:01:05.344Z,8.10
2018-03-31T12:02:05.467Z,8.10
2018-03-31T12:03:05.402Z,8.10
2018-03-31T12:04:05.311Z,8.10
2018-03-31T12:05:05.420Z,8.10
2018-03-31T12:06:05.225Z,8.10
2018-03-31T12:07:05.259Z,8.10
2018-03-31T12:08:04.795Z,8.10
2018-03-31T12:09:05.454Z,8.20
2018-03-31T12:10:05.030Z,8.20
2018-03-31T12:11:05.085Z,8.20
2018-03-31T12:12:05.236Z,8.20
2018-03-31T12:13:05.138Z,8.30
2018-03-31T12:14:04.814Z,8.30
2018-03-31T12:15:05.555Z,8.30
2018-03-31T12:16:04.886Z,8.40
2018-03-31T12:17:05.654Z,8.40
2018-03-31T12:18:05.582Z,8.40
2018-03-31T12:19:05.495Z,8.50
2018-03-31T12:20:05.371Z,8.50
2018-03-31T12:21:05.032Z,8.50
2018-03-31T12:22:05.541Z,8.50
2018-03-31T12:23:05.035Z,8.50
2018-03-31T12:24:05.502Z,8.60
2018-03-31T12:25:05.217Z,8.60
2018-03-31T12:26:05.287Z,8.60
2018-03-31T12:27:05.376Z,8.60
2018-03-31T12:28:05.408Z,8.60
2018-03-31T12:29:05.027Z,8.60
2018-03-31T12:30:05.264Z,8.70
2018-03-31T12:31:04.994Z,8.60
2018-03-31T12:32:05.225Z,8.70
2018-03-31T12:33:05.051Z,8.70
2018-03-31T12:34:04.778Z,8.70
2018-03-31T12:35:04.653Z,8.70
2018-03-31T12:36:05.749Z,8.70
2018-03-31T12:37:05.139Z,8.70
2018-03-31T12:38:05.299Z,8.70
2018-03-31T12:39:04.678Z,8.70
2018-03-31T12:40:05.482Z,8.70
2018-03-31T12:41:05.219Z,8.70
2018-03-31T12:42:05.120Z,8.70
2018-03-31T12:43:05.266Z,8.70
2018-03-31T12:44:04.809Z,8.70
2018-03-31T12:45:05.303Z,8.70
2018-03-31T12:46:05.056Z,8.70
2018-03-31T12:47:05.176Z,8.70
2018-03-31T12:48:05.277Z,8.70
2018-03-31T12:49:06.334Z,8.70
2018-03-31T12:50:05.308Z,8.70
2018-03-31T12:51:04.848Z,8.60
2018-03-31T12:52:05.349Z,8.60
2018-03-31T12:53:05.464Z,8.60
2018-03-31T12:54:05.090Z,8.60
2018-03-31T12:55:05.527Z,8.60
2018-03-31T12:56:05.332Z,8.60
2018-03-31T12:57:05.382Z,8.60
2018-03-31T12:58:05.392Z,8.60
2018-03-31T12:59:05.446Z,8.60
2018-03-31T13:00:05.100Z,8.60
2018-03-31T13:01:04.821Z,8.60
2018-03-31T13:02:04.797Z,8.70
2018-03-31T13:03:04.914Z,8.70
2018-03-31T13:04:05.362Z,8.70
2018-03-31T13:05:04.847Z,8.70
2018-03-31T13:06:05.709Z,8.70
2018-03-31T13:07:05.683Z,8.70
2018-03-31T13:08:05.017Z,8.70
2018-03-31T13:09:05.454Z,8.70
2018-03-31T13:10:05.435Z,8.70
2018-03-31T13:11:05.305Z,8.70
2018-03-31T13:12:05.118Z,8.60
2018-03-31T13:13:05.131Z,8.60
2018-03-31T13:14:04.944Z,8.60
2018-03-31T13:15:05.481Z,8.60
2018-03-31T13:16:05.390Z,8.60
2018-03-31T13:17:05.341Z,8.60
2018-03-31T13:18:05.071Z,8.60